sensor_id;sensor_type;location;lat;lon;timestamp;temperature;humidity
827;DHT22;395;48.132;11.608;2022-07-29T00:02:24;24.00;1.00
827;DHT22;395;48.132;11.608;2022-07-29T00:04:50;24.00;1.00
827;DHT22;395;48.132;11.608;2022-07-29T00:07:15;23.90;1.00
827;DHT22;395;48.132;11.608;2022-07-29T00:09:41;23.90;1.00
827;DHT22;395;48.132;11.608;2022-07-29T00:12:07;23.90;1.00
827;DHT22;395;48.132;11.608;2022-07-29T00:14:32;23.90;1.00
827;DHT22;395;48.132;11.608;2022-07-29T00:16:58;23.90;1.00
827;DHT22;395;48.132;11.608;2022-07-29T00:19:24;23.80;1.00
827;DHT22;395;48.132;11.608;2022-07-29T00:21:49;23.80;1.00
827;DHT22;395;48.132;11.608;2022-07-29T00:24:15;23.80;1.00
827;DHT22;395;48.132;11.608;2022-07-29T00:26:40;23.80;1.00
827;DHT22;395;48.132;11.608;2022-07-29T00:29:06;23.80;1.00
827;DHT22;395;48.132;11.608;2022-07-29T00:31:32;23.80;1.00
827;DHT22;395;48.132;11.608;2022-07-29T00:33:57;23.70;1.00
827;DHT22;395;48.132;11.608;2022-07-29T00:36:23;23.70;1.00
827;DHT22;395;48.132;11.608;2022-07-29T00:38:50;23.70;1.00
827;DHT22;395;48.132;11.608;2022-07-29T00:41:17;23.70;1.00
827;DHT22;395;48.132;11.608;2022-07-29T00:43:43;23.70;1.00
827;DHT22;395;48.132;11.608;2022-07-29T00:46:10;23.70;1.00
827;DHT22;395;48.132;11.608;2022-07-29T00:48:36;23.70;1.00
827;DHT22;395;48.132;11.608;2022-07-29T00:51:03;23.70;1.00
827;DHT22;395;48.132;11.608;2022-07-29T00:53:30;23.70;1.00
827;DHT22;395;48.132;11.608;2022-07-29T00:55:56;23.70;1.00
827;DHT22;395;48.132;11.608;2022-07-29T00:58:23;23.70;1.00
827;DHT22;395;48.132;11.608;2022-07-29T01:00:49;23.70;1.00
827;DHT22;395;48.132;11.608;2022-07-29T01:03:14;23.70;1.00
827;DHT22;395;48.132;11.608;2022-07-29T01:05:41;23.70;1.00
827;DHT22;395;48.132;11.608;2022-07-29T01:08:08;23.70;1.00
827;DHT22;395;48.132;11.608;2022-07-29T01:10:37;23.70;1.00
827;DHT22;395;48.132;11.608;2022-07-29T01:13:04;23.70;1.00
827;DHT22;395;48.132;11.608;2022-07-29T01:15:31;23.70;1.00
827;DHT22;395;48.132;11.608;2022-07-29T01:18:18;23.70;1.00
827;DHT22;395;48.132;11.608;2022-07-29T01:24:08;23.80;1.00
827;DHT22;395;48.132;11.608;2022-07-29T01:32:02;23.70;1.00
827;DHT22;395;48.132;11.608;2022-07-29T01:34:31;23.70;1.00
827;DHT22;395;48.132;11.608;2022-07-29T01:39:38;23.70;1.00
827;DHT22;395;48.132;11.608;2022-07-29T01:47:41;23.70;1.00
827;DHT22;395;48.132;11.608;2022-07-29T01:50:11;23.70;1.00
827;DHT22;395;48.132;11.608;2022-07-29T01:52:54;23.70;1.00
827;DHT22;395;48.132;11.608;2022-07-29T01:55:24;23.70;1.00
827;DHT22;395;48.132;11.608;2022-07-29T01:57:52;23.70;1.00
827;DHT22;395;48.132;11.608;2022-07-29T02:00:18;23.60;1.00
827;DHT22;395;48.132;11.608;2022-07-29T02:02:46;23.60;1.00
827;DHT22;395;48.132;11.608;2022-07-29T02:05:16;23.60;1.00
827;DHT22;395;48.132;11.608;2022-07-29T02:07:43;23.60;1.00
827;DHT22;395;48.132;11.608;2022-07-29T02:10:11;23.60;1.00
827;DHT22;395;48.132;11.608;2022-07-29T02:12:39;23.60;1.00
827;DHT22;395;48.132;11.608;2022-07-29T02:15:06;23.50;1.00
827;DHT22;395;48.132;11.608;2022-07-29T02:17:48;23.50;1.00
827;DHT22;395;48.132;11.608;2022-07-29T02:20:16;23.50;1.00
827;DHT22;395;48.132;11.608;2022-07-29T02:22:44;23.50;1.00
827;DHT22;395;48.132;11.608;2022-07-29T02:25:12;23.50;1.00
827;DHT22;395;48.132;11.608;2022-07-29T02:27:40;23.50;1.00
827;DHT22;395;48.132;11.608;2022-07-29T02:30:07;23.50;1.00
827;DHT22;395;48.132;11.608;2022-07-29T02:32:35;23.50;1.00
827;DHT22;395;48.132;11.608;2022-07-29T02:35:02;23.50;1.00
827;DHT22;395;48.132;11.608;2022-07-29T02:37:29;23.40;1.00
827;DHT22;395;48.132;11.608;2022-07-29T02:39:57;23.40;1.00
827;DHT22;395;48.132;11.608;2022-07-29T02:42:24;23.40;1.00
827;DHT22;395;48.132;11.608;2022-07-29T02:44:52;23.40;1.00
827;DHT22;395;48.132;11.608;2022-07-29T02:47:35;23.40;1.00
827;DHT22;395;48.132;11.608;2022-07-29T02:50:11;23.40;1.00
827;DHT22;395;48.132;11.608;2022-07-29T02:52:42;23.40;1.00
827;DHT22;395;48.132;11.608;2022-07-29T03:00:57;23.40;1.00
827;DHT22;395;48.132;11.608;2022-07-29T03:03:25;23.40;1.00
827;DHT22;395;48.132;11.608;2022-07-29T03:05:57;23.30;1.00
827;DHT22;395;48.132;11.608;2022-07-29T03:08:24;23.30;1.00
827;DHT22;395;48.132;11.608;2022-07-29T03:10:50;23.30;1.00
827;DHT22;395;48.132;11.608;2022-07-29T03:13:17;23.20;1.00
827;DHT22;395;48.132;11.608;2022-07-29T03:15:44;23.20;1.00
827;DHT22;395;48.132;11.608;2022-07-29T03:18:10;23.20;1.00
827;DHT22;395;48.132;11.608;2022-07-29T03:20:37;23.20;1.00
827;DHT22;395;48.132;11.608;2022-07-29T03:23:03;23.20;1.00
827;DHT22;395;48.132;11.608;2022-07-29T03:25:29;23.10;1.00
827;DHT22;395;48.132;11.608;2022-07-29T03:27:55;23.10;1.00
827;DHT22;395;48.132;11.608;2022-07-29T03:30:22;23.10;1.00
827;DHT22;395;48.132;11.608;2022-07-29T03:32:51;23.10;1.00
827;DHT22;395;48.132;11.608;2022-07-29T03:35:18;23.00;1.00
827;DHT22;395;48.132;11.608;2022-07-29T03:37:45;23.00;1.00
827;DHT22;395;48.132;11.608;2022-07-29T03:40:16;23.00;1.00
827;DHT22;395;48.132;11.608;2022-07-29T03:42:45;22.90;1.00
827;DHT22;395;48.132;11.608;2022-07-29T03:45:13;22.90;1.00
827;DHT22;395;48.132;11.608;2022-07-29T03:47:48;22.90;1.00
827;DHT22;395;48.132;11.608;2022-07-29T03:50:16;22.80;1.00
827;DHT22;395;48.132;11.608;2022-07-29T03:52:45;22.80;1.00
827;DHT22;395;48.132;11.608;2022-07-29T03:55:11;22.80;1.00
827;DHT22;395;48.132;11.608;2022-07-29T03:57:38;22.70;1.00
827;DHT22;395;48.132;11.608;2022-07-29T04:00:05;22.70;1.00
827;DHT22;395;48.132;11.608;2022-07-29T04:02:32;22.70;1.00
827;DHT22;395;48.132;11.608;2022-07-29T04:04:59;22.60;1.00
827;DHT22;395;48.132;11.608;2022-07-29T04:07:24;22.60;1.00
827;DHT22;395;48.132;11.608;2022-07-29T04:09:50;22.60;1.00
827;DHT22;395;48.132;11.608;2022-07-29T04:12:16;22.60;1.00
827;DHT22;395;48.132;11.608;2022-07-29T04:14:41;22.50;1.00
827;DHT22;395;48.132;11.608;2022-07-29T04:17:07;22.50;1.00
827;DHT22;395;48.132;11.608;2022-07-29T04:19:33;22.60;1.00
827;DHT22;395;48.132;11.608;2022-07-29T04:21:59;22.50;1.00
827;DHT22;395;48.132;11.608;2022-07-29T04:24:25;22.50;1.00
827;DHT22;395;48.132;11.608;2022-07-29T04:26:51;22.60;1.00
827;DHT22;395;48.132;11.608;2022-07-29T04:29:17;22.60;1.00
827;DHT22;395;48.132;11.608;2022-07-29T04:31:43;22.60;1.00
827;DHT22;395;48.132;11.608;2022-07-29T04:34:10;22.60;1.00
827;DHT22;395;48.132;11.608;2022-07-29T04:36:36;22.60;1.00
827;DHT22;395;48.132;11.608;2022-07-29T04:39:02;22.60;1.00
827;DHT22;395;48.132;11.608;2022-07-29T04:41:28;22.60;1.00
827;DHT22;395;48.132;11.608;2022-07-29T04:43:54;22.70;1.00
827;DHT22;395;48.132;11.608;2022-07-29T04:46:19;22.70;1.00
827;DHT22;395;48.132;11.608;2022-07-29T04:48:46;22.70;1.00
827;DHT22;395;48.132;11.608;2022-07-29T04:51:12;22.80;1.00
827;DHT22;395;48.132;11.608;2022-07-29T04:53:38;22.80;1.00
827;DHT22;395;48.132;11.608;2022-07-29T04:56:04;22.90;1.00
827;DHT22;395;48.132;11.608;2022-07-29T04:58:29;22.90;1.00
827;DHT22;395;48.132;11.608;2022-07-29T05:00:55;22.90;1.00
827;DHT22;395;48.132;11.608;2022-07-29T05:03:21;23.00;1.00
827;DHT22;395;48.132;11.608;2022-07-29T05:05:46;23.00;1.00
827;DHT22;395;48.132;11.608;2022-07-29T05:08:12;23.00;1.00
827;DHT22;395;48.132;11.608;2022-07-29T05:10:38;23.10;1.00
827;DHT22;395;48.132;11.608;2022-07-29T05:13:07;23.10;1.00
827;DHT22;395;48.132;11.608;2022-07-29T05:15:34;23.10;1.00
827;DHT22;395;48.132;11.608;2022-07-29T05:18:00;23.10;1.00
827;DHT22;395;48.132;11.608;2022-07-29T05:20:26;23.10;1.00
827;DHT22;395;48.132;11.608;2022-07-29T05:22:57;23.10;1.00
827;DHT22;395;48.132;11.608;2022-07-29T05:25:25;23.10;1.00
827;DHT22;395;48.132;11.608;2022-07-29T05:27:51;23.10;1.00
827;DHT22;395;48.132;11.608;2022-07-29T05:30:17;23.10;1.00
827;DHT22;395;48.132;11.608;2022-07-29T05:32:42;23.20;1.00
827;DHT22;395;48.132;11.608;2022-07-29T05:35:08;23.20;1.00
827;DHT22;395;48.132;11.608;2022-07-29T05:37:34;23.20;1.00
827;DHT22;395;48.132;11.608;2022-07-29T05:40:00;23.20;1.00
827;DHT22;395;48.132;11.608;2022-07-29T05:42:26;23.20;1.00
827;DHT22;395;48.132;11.608;2022-07-29T05:44:53;23.30;1.00
827;DHT22;395;48.132;11.608;2022-07-29T05:47:19;23.30;1.00
827;DHT22;395;48.132;11.608;2022-07-29T05:49:45;23.30;1.00
827;DHT22;395;48.132;11.608;2022-07-29T05:52:11;23.40;1.00
827;DHT22;395;48.132;11.608;2022-07-29T05:54:38;23.40;1.00
827;DHT22;395;48.132;11.608;2022-07-29T05:57:05;23.50;1.00
827;DHT22;395;48.132;11.608;2022-07-29T05:59:31;23.50;1.00
827;DHT22;395;48.132;11.608;2022-07-29T06:01:57;23.50;1.00
827;DHT22;395;48.132;11.608;2022-07-29T06:04:23;23.50;1.00
827;DHT22;395;48.132;11.608;2022-07-29T06:06:48;23.60;1.00
827;DHT22;395;48.132;11.608;2022-07-29T06:09:14;23.60;1.00
827;DHT22;395;48.132;11.608;2022-07-29T06:11:40;23.60;1.00
827;DHT22;395;48.132;11.608;2022-07-29T06:14:06;23.60;1.00
827;DHT22;395;48.132;11.608;2022-07-29T06:16:32;23.60;1.00
827;DHT22;395;48.132;11.608;2022-07-29T06:18:58;23.70;1.00
827;DHT22;395;48.132;11.608;2022-07-29T06:21:23;23.70;1.00
827;DHT22;395;48.132;11.608;2022-07-29T06:23:49;23.70;1.00
827;DHT22;395;48.132;11.608;2022-07-29T06:26:14;23.70;1.00
827;DHT22;395;48.132;11.608;2022-07-29T06:28:40;23.70;1.00
827;DHT22;395;48.132;11.608;2022-07-29T06:31:06;23.80;1.00
827;DHT22;395;48.132;11.608;2022-07-29T06:33:31;23.80;1.00
827;DHT22;395;48.132;11.608;2022-07-29T06:35:57;23.80;1.00
827;DHT22;395;48.132;11.608;2022-07-29T06:38:23;23.80;1.00
827;DHT22;395;48.132;11.608;2022-07-29T06:40:48;23.80;1.00
827;DHT22;395;48.132;11.608;2022-07-29T06:43:38;23.80;1.00
827;DHT22;395;48.132;11.608;2022-07-29T06:46:05;23.90;1.00
827;DHT22;395;48.132;11.608;2022-07-29T06:48:32;23.90;1.00
827;DHT22;395;48.132;11.608;2022-07-29T06:50:58;23.90;1.00
827;DHT22;395;48.132;11.608;2022-07-29T06:53:26;24.00;1.00
827;DHT22;395;48.132;11.608;2022-07-29T06:55:52;24.00;1.00
827;DHT22;395;48.132;11.608;2022-07-29T06:58:17;24.10;1.00
827;DHT22;395;48.132;11.608;2022-07-29T07:00:46;24.10;1.00
827;DHT22;395;48.132;11.608;2022-07-29T07:03:12;24.20;1.00
827;DHT22;395;48.132;11.608;2022-07-29T07:05:38;24.20;1.00
827;DHT22;395;48.132;11.608;2022-07-29T07:08:04;24.20;1.00
827;DHT22;395;48.132;11.608;2022-07-29T07:10:30;24.20;1.00
827;DHT22;395;48.132;11.608;2022-07-29T07:12:55;24.20;1.00
827;DHT22;395;48.132;11.608;2022-07-29T07:15:21;24.30;1.00
827;DHT22;395;48.132;11.608;2022-07-29T07:17:48;24.30;1.00
827;DHT22;395;48.132;11.608;2022-07-29T07:20:15;24.30;1.00
827;DHT22;395;48.132;11.608;2022-07-29T07:22:41;24.30;1.00
827;DHT22;395;48.132;11.608;2022-07-29T07:25:07;24.30;1.00
827;DHT22;395;48.132;11.608;2022-07-29T07:27:32;24.40;1.00
827;DHT22;395;48.132;11.608;2022-07-29T07:29:58;24.30;1.00
827;DHT22;395;48.132;11.608;2022-07-29T07:32:24;24.30;1.00
827;DHT22;395;48.132;11.608;2022-07-29T07:34:49;24.40;1.00
827;DHT22;395;48.132;11.608;2022-07-29T07:37:15;24.40;1.00
827;DHT22;395;48.132;11.608;2022-07-29T07:39:41;24.40;1.00
827;DHT22;395;48.132;11.608;2022-07-29T07:42:07;24.40;1.00
827;DHT22;395;48.132;11.608;2022-07-29T07:44:32;24.40;1.00
827;DHT22;395;48.132;11.608;2022-07-29T07:46:58;24.50;1.00
827;DHT22;395;48.132;11.608;2022-07-29T07:49:24;24.50;1.00
827;DHT22;395;48.132;11.608;2022-07-29T07:51:49;24.50;1.00
827;DHT22;395;48.132;11.608;2022-07-29T07:54:15;24.60;1.00
827;DHT22;395;48.132;11.608;2022-07-29T07:56:41;24.70;1.00
827;DHT22;395;48.132;11.608;2022-07-29T07:59:06;24.60;1.00
827;DHT22;395;48.132;11.608;2022-07-29T08:01:32;24.70;1.00
827;DHT22;395;48.132;11.608;2022-07-29T08:03:57;24.70;1.00
827;DHT22;395;48.132;11.608;2022-07-29T08:06:23;24.70;1.00
827;DHT22;395;48.132;11.608;2022-07-29T08:08:50;24.70;1.00
827;DHT22;395;48.132;11.608;2022-07-29T08:11:16;24.70;1.00
827;DHT22;395;48.132;11.608;2022-07-29T08:13:42;24.90;1.00
827;DHT22;395;48.132;11.608;2022-07-29T08:16:08;24.90;1.00
827;DHT22;395;48.132;11.608;2022-07-29T08:18:40;24.90;1.00
827;DHT22;395;48.132;11.608;2022-07-29T08:21:06;24.90;1.00
827;DHT22;395;48.132;11.608;2022-07-29T08:23:32;25.00;1.00
827;DHT22;395;48.132;11.608;2022-07-29T08:26:21;24.90;1.00
827;DHT22;395;48.132;11.608;2022-07-29T08:28:48;25.00;1.00
827;DHT22;395;48.132;11.608;2022-07-29T08:31:17;25.00;1.00
827;DHT22;395;48.132;11.608;2022-07-29T08:33:43;25.00;1.00
827;DHT22;395;48.132;11.608;2022-07-29T08:36:08;25.00;1.00
827;DHT22;395;48.132;11.608;2022-07-29T08:38:34;25.10;1.00
827;DHT22;395;48.132;11.608;2022-07-29T08:41:00;25.00;1.00
827;DHT22;395;48.132;11.608;2022-07-29T08:43:28;25.10;1.00
827;DHT22;395;48.132;11.608;2022-07-29T08:45:54;25.20;1.00
827;DHT22;395;48.132;11.608;2022-07-29T08:48:21;25.20;1.00
827;DHT22;395;48.132;11.608;2022-07-29T08:50:51;25.30;1.00
827;DHT22;395;48.132;11.608;2022-07-29T08:53:18;25.40;1.00
827;DHT22;395;48.132;11.608;2022-07-29T08:55:45;25.50;1.00
827;DHT22;395;48.132;11.608;2022-07-29T08:58:12;25.60;1.00
827;DHT22;395;48.132;11.608;2022-07-29T09:00:42;25.70;1.00
827;DHT22;395;48.132;11.608;2022-07-29T09:03:09;25.80;1.00
827;DHT22;395;48.132;11.608;2022-07-29T09:05:41;25.80;1.00
827;DHT22;395;48.132;11.608;2022-07-29T09:08:08;26.00;1.00
827;DHT22;395;48.132;11.608;2022-07-29T09:10:35;26.00;1.00
827;DHT22;395;48.132;11.608;2022-07-29T09:13:01;26.10;1.00
827;DHT22;395;48.132;11.608;2022-07-29T09:15:27;26.10;1.00
827;DHT22;395;48.132;11.608;2022-07-29T09:17:53;26.10;1.00
827;DHT22;395;48.132;11.608;2022-07-29T09:20:20;26.10;1.00
827;DHT22;395;48.132;11.608;2022-07-29T09:22:48;26.10;1.00
827;DHT22;395;48.132;11.608;2022-07-29T09:25:37;26.20;1.00
827;DHT22;395;48.132;11.608;2022-07-29T09:28:09;26.20;1.00
827;DHT22;395;48.132;11.608;2022-07-29T09:30:35;26.30;1.00
827;DHT22;395;48.132;11.608;2022-07-29T09:33:03;26.50;1.00
827;DHT22;395;48.132;11.608;2022-07-29T09:35:29;26.50;1.00
827;DHT22;395;48.132;11.608;2022-07-29T09:37:55;26.50;1.00
827;DHT22;395;48.132;11.608;2022-07-29T09:40:23;26.60;1.00
827;DHT22;395;48.132;11.608;2022-07-29T09:42:50;26.70;1.00
827;DHT22;395;48.132;11.608;2022-07-29T09:45:37;26.80;1.00
827;DHT22;395;48.132;11.608;2022-07-29T09:48:21;26.80;1.00
827;DHT22;395;48.132;11.608;2022-07-29T09:50:48;26.80;1.00
827;DHT22;395;48.132;11.608;2022-07-29T09:53:34;26.90;1.00
827;DHT22;395;48.132;11.608;2022-07-29T09:56:01;26.90;1.00
827;DHT22;395;48.132;11.608;2022-07-29T09:58:27;27.00;1.00
827;DHT22;395;48.132;11.608;2022-07-29T10:00:53;27.00;1.00
827;DHT22;395;48.132;11.608;2022-07-29T10:03:21;27.00;1.00
827;DHT22;395;48.132;11.608;2022-07-29T10:06:10;26.90;1.00
827;DHT22;395;48.132;11.608;2022-07-29T10:08:39;26.80;1.00
827;DHT22;395;48.132;11.608;2022-07-29T10:11:14;26.90;1.00
827;DHT22;395;48.132;11.608;2022-07-29T10:13:41;26.90;1.00
827;DHT22;395;48.132;11.608;2022-07-29T10:16:08;27.00;1.00
827;DHT22;395;48.132;11.608;2022-07-29T10:18:34;26.90;1.00
827;DHT22;395;48.132;11.608;2022-07-29T10:21:00;26.90;1.00
827;DHT22;395;48.132;11.608;2022-07-29T10:23:28;26.90;1.00
827;DHT22;395;48.132;11.608;2022-07-29T10:25:54;26.80;1.00
827;DHT22;395;48.132;11.608;2022-07-29T10:28:19;26.80;1.00
827;DHT22;395;48.132;11.608;2022-07-29T10:30:46;26.70;1.00
827;DHT22;395;48.132;11.608;2022-07-29T10:33:27;26.70;1.00
827;DHT22;395;48.132;11.608;2022-07-29T10:36:07;26.60;1.00
827;DHT22;395;48.132;11.608;2022-07-29T10:38:44;26.60;1.00
827;DHT22;395;48.132;11.608;2022-07-29T10:41:12;26.70;1.00
827;DHT22;395;48.132;11.608;2022-07-29T10:44:14;26.70;1.00
827;DHT22;395;48.132;11.608;2022-07-29T10:46:41;26.70;1.00
827;DHT22;395;48.132;11.608;2022-07-29T10:51:56;26.90;1.00
827;DHT22;395;48.132;11.608;2022-07-29T11:05:00;26.90;1.00
827;DHT22;395;48.132;11.608;2022-07-29T11:07:26;26.80;1.00
827;DHT22;395;48.132;11.608;2022-07-29T11:15:08;26.90;1.00
827;DHT22;395;48.132;11.608;2022-07-29T11:20:45;27.00;1.00
827;DHT22;395;48.132;11.608;2022-07-29T11:26:16;26.90;1.00
827;DHT22;395;48.132;11.608;2022-07-29T11:29:01;27.00;1.00
827;DHT22;395;48.132;11.608;2022-07-29T11:39:40;27.30;1.00
827;DHT22;395;48.132;11.608;2022-07-29T11:50:12;27.60;1.00
827;DHT22;395;48.132;11.608;2022-07-29T11:52:41;27.50;1.00
827;DHT22;395;48.132;11.608;2022-07-29T11:55:17;27.60;1.00
827;DHT22;395;48.132;11.608;2022-07-29T11:57:47;27.60;1.00
827;DHT22;395;48.132;11.608;2022-07-29T12:00:22;27.70;1.00
827;DHT22;395;48.132;11.608;2022-07-29T12:02:49;27.80;1.00
827;DHT22;395;48.132;11.608;2022-07-29T12:05:15;27.90;1.00
827;DHT22;395;48.132;11.608;2022-07-29T12:07:40;27.80;1.00
827;DHT22;395;48.132;11.608;2022-07-29T12:10:07;27.90;1.00
827;DHT22;395;48.132;11.608;2022-07-29T12:12:34;28.00;1.00
827;DHT22;395;48.132;11.608;2022-07-29T12:15:17;28.10;1.00
827;DHT22;395;48.132;11.608;2022-07-29T12:17:45;28.20;1.00
827;DHT22;395;48.132;11.608;2022-07-29T12:20:11;28.20;1.00
827;DHT22;395;48.132;11.608;2022-07-29T12:22:40;28.20;1.00
827;DHT22;395;48.132;11.608;2022-07-29T12:25:12;28.20;1.00
827;DHT22;395;48.132;11.608;2022-07-29T12:27:40;28.20;1.00
827;DHT22;395;48.132;11.608;2022-07-29T12:30:08;28.20;1.00
827;DHT22;395;48.132;11.608;2022-07-29T12:32:36;28.30;1.00
827;DHT22;395;48.132;11.608;2022-07-29T12:35:10;28.30;1.00
827;DHT22;395;48.132;11.608;2022-07-29T12:37:38;28.30;1.00
827;DHT22;395;48.132;11.608;2022-07-29T12:40:05;28.30;1.00
827;DHT22;395;48.132;11.608;2022-07-29T12:42:32;28.40;1.00
827;DHT22;395;48.132;11.608;2022-07-29T12:44:58;28.40;1.00
827;DHT22;395;48.132;11.608;2022-07-29T12:47:24;28.40;1.00
827;DHT22;395;48.132;11.608;2022-07-29T12:49:50;28.40;1.00
827;DHT22;395;48.132;11.608;2022-07-29T12:52:29;28.40;1.00
827;DHT22;395;48.132;11.608;2022-07-29T12:54:55;28.30;1.00
827;DHT22;395;48.132;11.608;2022-07-29T12:57:21;28.30;1.00
827;DHT22;395;48.132;11.608;2022-07-29T13:00:11;28.30;1.00
827;DHT22;395;48.132;11.608;2022-07-29T13:02:39;28.40;1.00
827;DHT22;395;48.132;11.608;2022-07-29T13:05:07;28.40;1.00
827;DHT22;395;48.132;11.608;2022-07-29T13:07:34;28.30;1.00
827;DHT22;395;48.132;11.608;2022-07-29T13:10:14;28.30;1.00
827;DHT22;395;48.132;11.608;2022-07-29T13:15:33;28.10;1.00
827;DHT22;395;48.132;11.608;2022-07-29T13:18:00;28.00;1.00
827;DHT22;395;48.132;11.608;2022-07-29T13:20:27;28.00;1.00
827;DHT22;395;48.132;11.608;2022-07-29T13:22:59;28.00;1.00
827;DHT22;395;48.132;11.608;2022-07-29T13:25:30;27.90;1.00
827;DHT22;395;48.132;11.608;2022-07-29T13:27:57;27.90;1.00
827;DHT22;395;48.132;11.608;2022-07-29T13:30:23;27.80;1.00
827;DHT22;395;48.132;11.608;2022-07-29T13:32:51;27.70;1.00
827;DHT22;395;48.132;11.608;2022-07-29T13:35:17;27.70;1.00
827;DHT22;395;48.132;11.608;2022-07-29T13:37:43;27.70;1.00
827;DHT22;395;48.132;11.608;2022-07-29T13:40:10;27.70;1.00
827;DHT22;395;48.132;11.608;2022-07-29T13:42:36;27.70;1.00
827;DHT22;395;48.132;11.608;2022-07-29T13:45:06;27.80;1.00
827;DHT22;395;48.132;11.608;2022-07-29T13:47:32;27.70;1.00
827;DHT22;395;48.132;11.608;2022-07-29T13:49:57;27.60;1.00
827;DHT22;395;48.132;11.608;2022-07-29T13:52:23;27.50;1.00
827;DHT22;395;48.132;11.608;2022-07-29T13:54:49;27.50;1.00
827;DHT22;395;48.132;11.608;2022-07-29T13:57:16;27.60;1.00
827;DHT22;395;48.132;11.608;2022-07-29T13:59:42;27.50;1.00
827;DHT22;395;48.132;11.608;2022-07-29T14:02:09;27.50;1.00
827;DHT22;395;48.132;11.608;2022-07-29T14:04:35;27.50;1.00
827;DHT22;395;48.132;11.608;2022-07-29T14:07:02;27.50;1.00
827;DHT22;395;48.132;11.608;2022-07-29T14:09:28;27.60;1.00
827;DHT22;395;48.132;11.608;2022-07-29T14:11:54;27.60;1.00
827;DHT22;395;48.132;11.608;2022-07-29T14:14:19;27.70;1.00
827;DHT22;395;48.132;11.608;2022-07-29T14:16:45;27.80;1.00
827;DHT22;395;48.132;11.608;2022-07-29T14:19:11;27.90;1.00
827;DHT22;395;48.132;11.608;2022-07-29T14:21:38;27.90;1.00
827;DHT22;395;48.132;11.608;2022-07-29T14:24:04;27.90;1.00
827;DHT22;395;48.132;11.608;2022-07-29T14:26:30;27.90;1.00
827;DHT22;395;48.132;11.608;2022-07-29T14:28:55;27.90;1.00
827;DHT22;395;48.132;11.608;2022-07-29T14:31:21;27.90;1.00
827;DHT22;395;48.132;11.608;2022-07-29T14:33:47;27.90;1.00
827;DHT22;395;48.132;11.608;2022-07-29T14:36:12;27.90;1.00
827;DHT22;395;48.132;11.608;2022-07-29T14:38:38;27.90;1.00
827;DHT22;395;48.132;11.608;2022-07-29T14:41:06;28.00;1.00
827;DHT22;395;48.132;11.608;2022-07-29T14:43:31;27.90;1.00
827;DHT22;395;48.132;11.608;2022-07-29T14:45:57;28.00;1.00
827;DHT22;395;48.132;11.608;2022-07-29T14:48:23;28.00;1.00
827;DHT22;395;48.132;11.608;2022-07-29T14:50:48;28.10;1.00
827;DHT22;395;48.132;11.608;2022-07-29T14:53:14;28.00;1.00
827;DHT22;395;48.132;11.608;2022-07-29T14:55:40;28.10;1.00
827;DHT22;395;48.132;11.608;2022-07-29T14:58:07;28.10;1.00
827;DHT22;395;48.132;11.608;2022-07-29T15:00:33;27.90;1.00
827;DHT22;395;48.132;11.608;2022-07-29T15:03:00;27.80;1.00
827;DHT22;395;48.132;11.608;2022-07-29T15:05:26;27.80;1.00
827;DHT22;395;48.132;11.608;2022-07-29T15:07:52;27.70;1.00
827;DHT22;395;48.132;11.608;2022-07-29T15:10:18;27.70;1.00
827;DHT22;395;48.132;11.608;2022-07-29T15:12:44;27.70;1.00
827;DHT22;395;48.132;11.608;2022-07-29T15:15:10;27.70;1.00
827;DHT22;395;48.132;11.608;2022-07-29T15:17:36;27.70;1.00
827;DHT22;395;48.132;11.608;2022-07-29T15:20:01;27.60;1.00
827;DHT22;395;48.132;11.608;2022-07-29T15:22:27;27.50;1.00
827;DHT22;395;48.132;11.608;2022-07-29T15:24:53;27.40;1.00
827;DHT22;395;48.132;11.608;2022-07-29T15:27:19;27.40;1.00
827;DHT22;395;48.132;11.608;2022-07-29T15:29:44;27.40;1.00
827;DHT22;395;48.132;11.608;2022-07-29T15:32:10;27.40;1.00
827;DHT22;395;48.132;11.608;2022-07-29T15:34:37;27.20;1.00
827;DHT22;395;48.132;11.608;2022-07-29T15:37:04;27.20;1.00
827;DHT22;395;48.132;11.608;2022-07-29T15:39:30;27.20;1.00
827;DHT22;395;48.132;11.608;2022-07-29T15:41:55;27.10;1.00
827;DHT22;395;48.132;11.608;2022-07-29T15:44:21;27.10;1.00
827;DHT22;395;48.132;11.608;2022-07-29T15:46:48;27.10;1.00
827;DHT22;395;48.132;11.608;2022-07-29T15:49:34;27.00;1.00
827;DHT22;395;48.132;11.608;2022-07-29T15:52:01;27.00;1.00
827;DHT22;395;48.132;11.608;2022-07-29T15:54:29;27.00;1.00
827;DHT22;395;48.132;11.608;2022-07-29T15:56:55;26.90;1.00
827;DHT22;395;48.132;11.608;2022-07-29T15:59:21;26.80;1.00
827;DHT22;395;48.132;11.608;2022-07-29T16:01:47;26.80;1.00
827;DHT22;395;48.132;11.608;2022-07-29T16:04:14;26.60;1.00
827;DHT22;395;48.132;11.608;2022-07-29T16:06:40;26.60;1.00
827;DHT22;395;48.132;11.608;2022-07-29T16:09:06;26.70;1.00
827;DHT22;395;48.132;11.608;2022-07-29T16:11:31;26.70;1.00
827;DHT22;395;48.132;11.608;2022-07-29T16:13:58;26.60;1.00
827;DHT22;395;48.132;11.608;2022-07-29T16:16:23;26.60;1.00
827;DHT22;395;48.132;11.608;2022-07-29T16:18:49;26.60;1.00
827;DHT22;395;48.132;11.608;2022-07-29T16:21:15;26.60;1.00
827;DHT22;395;48.132;11.608;2022-07-29T16:23:40;26.50;1.00
827;DHT22;395;48.132;11.608;2022-07-29T16:26:06;26.50;1.00
827;DHT22;395;48.132;11.608;2022-07-29T16:28:32;26.50;1.00
827;DHT22;395;48.132;11.608;2022-07-29T16:30:58;26.40;1.00
827;DHT22;395;48.132;11.608;2022-07-29T16:33:24;26.40;1.00
827;DHT22;395;48.132;11.608;2022-07-29T16:35:50;26.30;1.00
827;DHT22;395;48.132;11.608;2022-07-29T16:38:16;26.30;1.00
827;DHT22;395;48.132;11.608;2022-07-29T16:40:42;26.30;1.00
827;DHT22;395;48.132;11.608;2022-07-29T16:43:08;26.30;1.00
827;DHT22;395;48.132;11.608;2022-07-29T16:45:34;26.20;1.00
827;DHT22;395;48.132;11.608;2022-07-29T16:48:00;26.20;1.00
827;DHT22;395;48.132;11.608;2022-07-29T16:50:27;26.10;1.00
827;DHT22;395;48.132;11.608;2022-07-29T16:52:53;26.20;1.00
827;DHT22;395;48.132;11.608;2022-07-29T16:55:19;26.20;1.00
827;DHT22;395;48.132;11.608;2022-07-29T16:57:45;26.00;1.00
827;DHT22;395;48.132;11.608;2022-07-29T17:00:12;25.90;1.00
827;DHT22;395;48.132;11.608;2022-07-29T17:02:38;25.90;1.00
827;DHT22;395;48.132;11.608;2022-07-29T17:05:05;25.90;1.00
827;DHT22;395;48.132;11.608;2022-07-29T17:07:31;25.80;1.00
827;DHT22;395;48.132;11.608;2022-07-29T17:09:57;25.80;1.00
827;DHT22;395;48.132;11.608;2022-07-29T17:12:23;25.80;1.00
827;DHT22;395;48.132;11.608;2022-07-29T17:14:49;25.80;1.00
827;DHT22;395;48.132;11.608;2022-07-29T17:17:14;25.70;1.00
827;DHT22;395;48.132;11.608;2022-07-29T17:19:41;25.70;1.00
827;DHT22;395;48.132;11.608;2022-07-29T17:22:07;25.70;1.00
827;DHT22;395;48.132;11.608;2022-07-29T17:24:33;25.50;1.00
827;DHT22;395;48.132;11.608;2022-07-29T17:26:59;25.50;1.00
827;DHT22;395;48.132;11.608;2022-07-29T17:29:25;25.40;1.00
827;DHT22;395;48.132;11.608;2022-07-29T17:31:50;25.40;1.00
827;DHT22;395;48.132;11.608;2022-07-29T17:34:16;25.40;1.00
827;DHT22;395;48.132;11.608;2022-07-29T17:36:42;25.50;1.00
827;DHT22;395;48.132;11.608;2022-07-29T17:39:08;25.40;1.00
827;DHT22;395;48.132;11.608;2022-07-29T17:41:36;25.40;1.00
827;DHT22;395;48.132;11.608;2022-07-29T17:44:02;25.30;1.00